sensor_id;sensor_type;location;lat;lon;timestamp;pressure;altitude;pressure_sealevel;temperature;humidity
21944;BME280;11136;48.778;9.126;2024-01-25T00:00:50;98506.28;;;10.60;58.07
21944;BME280;11136;48.778;9.126;2024-01-25T00:03:15;98658.50;;;11.50;58.30
21944;BME280;11136;48.778;9.126;2024-01-25T00:05:40;98656.59;;;11.54;58.39
21944;BME280;11136;48.778;9.126;2024-01-25T00:08:06;98570.34;;;10.98;58.62
21944;BME280;11136;48.778;9.126;2024-01-25T00:10:31;98380.41;;;9.94;58.51
21944;BME280;11136;48.778;9.126;2024-01-25T00:12:56;98261.75;;;9.21;58.47
21944;BME280;11136;48.778;9.126;2024-01-25T00:15:22;98649.81;;;11.53;58.96
21944;BME280;11136;48.778;9.126;2024-01-25T00:17:47;98459.44;;;10.39;58.85
21944;BME280;11136;48.778;9.126;2024-01-25T00:20:13;98492.16;;;10.70;59.17
21944;BME280;11136;48.778;9.126;2024-01-25T00:22:38;98265.75;;;9.27;59.16
21944;BME280;11136;48.778;9.126;2024-01-25T00:25:04;98514.41;;;10.70;59.23
21944;BME280;11136;48.778;9.126;2024-01-25T00:27:29;98641.06;;;11.57;59.03
21944;BME280;11136;48.778;9.126;2024-01-25T00:29:54;98495.22;;;10.77;59.08
21944;BME280;11136;48.778;9.126;2024-01-25T00:32:20;98340.31;;;9.76;59.83
21944;BME280;11136;48.778;9.126;2024-01-25T00:34:45;98320.22;;;9.67;59.57
21944;BME280;11136;48.778;9.126;2024-01-25T00:37:11;98628.31;;;11.55;59.74
21944;BME280;11136;48.778;9.126;2024-01-25T00:39:36;98525.78;;;10.82;60.30
21944;BME280;11136;48.778;9.126;2024-01-25T00:42:04;98268.19;;;9.30;60.22
21944;BME280;11136;48.778;9.126;2024-01-25T00:44:33;98513.84;;;10.63;59.90
21944;BME280;11136;48.778;9.126;2024-01-25T00:46:59;98410.44;;;10.09;60.18
21944;BME280;11136;48.778;9.126;2024-01-25T00:49:24;98545.50;;;10.98;60.58
21944;BME280;11136;48.778;9.126;2024-01-25T00:51:58;98635.19;;;11.55;60.56
21944;BME280;11136;48.778;9.126;2024-01-25T00:54:24;98406.72;;;10.15;60.50
21944;BME280;11136;48.778;9.126;2024-01-25T00:56:49;98448.06;;;10.45;60.90
21944;BME280;11136;48.778;9.126;2024-01-25T00:59:18;98077.84;;;7.46;60.49
21944;BME280;11136;48.778;9.126;2024-01-25T01:01:46;98508.00;;;10.79;60.98
21944;BME280;11136;48.778;9.126;2024-01-25T01:04:11;98642.56;;;11.61;60.76
21944;BME280;11136;48.778;9.126;2024-01-25T01:06:37;98538.63;;;10.82;60.83
21944;BME280;11136;48.778;9.126;2024-01-25T01:09:02;98606.25;;;11.34;61.06
21944;BME280;11136;48.778;9.126;2024-01-25T01:11:29;98636.44;;;11.63;60.78
21944;BME280;11136;48.778;9.126;2024-01-25T01:13:54;98637.28;;;11.64;60.55
21944;BME280;11136;48.778;9.126;2024-01-25T01:16:19;98544.22;;;11.07;60.95
21944;BME280;11136;48.778;9.126;2024-01-25T01:18:45;98643.25;;;11.64;60.93
21944;BME280;11136;48.778;9.126;2024-01-25T01:21:11;98624.66;;;11.59;60.86
21944;BME280;11136;48.778;9.126;2024-01-25T01:23:36;98518.19;;;10.97;60.90
21944;BME280;11136;48.778;9.126;2024-01-25T01:26:01;98647.88;;;11.58;61.01
21944;BME280;11136;48.778;9.126;2024-01-25T01:28:27;98494.03;;;10.67;61.06
21944;BME280;11136;48.778;9.126;2024-01-25T01:30:52;98539.91;;;11.08;61.08
21944;BME280;11136;48.778;9.126;2024-01-25T01:33:17;98412.91;;;10.30;60.92
21944;BME280;11136;48.778;9.126;2024-01-25T01:35:42;98525.78;;;10.82;60.87
21944;BME280;11136;48.778;9.126;2024-01-25T01:38:08;98442.03;;;10.46;61.04
21944;BME280;11136;48.778;9.126;2024-01-25T01:40:33;98456.97;;;10.55;60.92
21944;BME280;11136;48.778;9.126;2024-01-25T01:42:59;98624.66;;;11.59;61.27
21944;BME280;11136;48.778;9.126;2024-01-25T01:45:25;98597.09;;;11.46;60.96
21944;BME280;11136;48.778;9.126;2024-01-25T01:47:51;98629.13;;;11.56;60.89
21944;BME280;11136;48.778;9.126;2024-01-25T01:50:16;98378.72;;;9.93;60.66
21944;BME280;11136;48.778;9.126;2024-01-25T01:52:42;98269.72;;;9.34;60.59
21944;BME280;11136;48.778;9.126;2024-01-25T01:55:08;98493.19;;;10.66;60.75
21944;BME280;11136;48.778;9.126;2024-01-25T01:57:34;98625.75;;;11.55;60.70
21944;BME280;11136;48.778;9.126;2024-01-25T02:00:03;98654.94;;;11.53;60.50
21944;BME280;11136;48.778;9.126;2024-01-25T02:02:30;98522.31;;;10.65;60.25
21944;BME280;11136;48.778;9.126;2024-01-25T02:04:55;98364.50;;;9.88;60.17
21944;BME280;11136;48.778;9.126;2024-01-25T02:07:20;98462.25;;;10.52;60.31
21944;BME280;11136;48.778;9.126;2024-01-25T02:09:46;98622.78;;;11.46;60.66
21944;BME280;11136;48.778;9.126;2024-01-25T02:12:15;98485.50;;;10.66;60.05
21944;BME280;11136;48.778;9.126;2024-01-25T02:14:42;98461.94;;;10.41;60.16
21944;BME280;11136;48.778;9.126;2024-01-25T02:17:07;98462.00;;;10.39;59.95
21944;BME280;11136;48.778;9.126;2024-01-25T02:19:32;98627.47;;;11.55;60.37
21944;BME280;11136;48.778;9.126;2024-01-25T02:21:58;98518.34;;;10.94;60.09
21944;BME280;11136;48.778;9.126;2024-01-25T02:24:24;98612.06;;;11.55;60.13
21944;BME280;11136;48.778;9.126;2024-01-25T02:26:49;98607.38;;;11.46;60.43
21944;BME280;11136;48.778;9.126;2024-01-25T02:29:15;98503.38;;;10.85;60.19
21944;BME280;11136;48.778;9.126;2024-01-25T02:31:40;98462.09;;;10.55;60.27
21944;BME280;11136;48.778;9.126;2024-01-25T02:34:06;98615.00;;;11.47;60.24
21944;BME280;11136;48.778;9.126;2024-01-25T02:36:31;98621.72;;;11.50;60.33
21944;BME280;11136;48.778;9.126;2024-01-25T02:38:56;98549.88;;;10.79;59.88
21944;BME280;11136;48.778;9.126;2024-01-25T02:41:22;98641.66;;;11.45;59.95
21944;BME280;11136;48.778;9.126;2024-01-25T02:43:47;98454.19;;;10.42;59.91
21944;BME280;11136;48.778;9.126;2024-01-25T02:46:12;98397.31;;;9.98;60.02
21944;BME280;11136;48.778;9.126;2024-01-25T02:48:37;98262.31;;;9.28;60.02
21944;BME280;11136;48.778;9.126;2024-01-25T02:51:03;98185.31;;;8.59;59.88
21944;BME280;11136;48.778;9.126;2024-01-25T02:53:28;98346.13;;;9.61;60.11
21944;BME280;11136;48.778;9.126;2024-01-25T02:55:53;98607.84;;;11.37;60.32
21944;BME280;11136;48.778;9.126;2024-01-25T02:58:19;98577.00;;;11.02;60.25
21944;BME280;11136;48.778;9.126;2024-01-25T03:00:44;98277.69;;;9.28;59.98
21944;BME280;11136;48.778;9.126;2024-01-25T03:03:09;98572.59;;;11.04;59.91
21944;BME280;11136;48.778;9.126;2024-01-25T03:05:35;98440.66;;;10.22;60.08
21944;BME280;11136;48.778;9.126;2024-01-25T03:08:00;98614.06;;;11.31;60.06
21944;BME280;11136;48.778;9.126;2024-01-25T03:10:26;98547.53;;;10.74;59.87
21944;BME280;11136;48.778;9.126;2024-01-25T03:12:51;98359.81;;;9.78;60.24
21944;BME280;11136;48.778;9.126;2024-01-25T03:15:16;98596.78;;;11.17;60.05
21944;BME280;11136;48.778;9.126;2024-01-25T03:17:42;98492.94;;;10.54;60.01
21944;BME280;11136;48.778;9.126;2024-01-25T03:20:07;98629.28;;;11.35;60.47
21944;BME280;11136;48.778;9.126;2024-01-25T03:22:32;98487.84;;;10.35;59.86
21944;BME280;11136;48.778;9.126;2024-01-25T03:24:58;98495.44;;;10.55;60.15
21944;BME280;11136;48.778;9.126;2024-01-25T03:27:23;98632.53;;;11.39;60.33
21944;BME280;11136;48.778;9.126;2024-01-25T03:29:48;98630.72;;;11.41;60.04
21944;BME280;11136;48.778;9.126;2024-01-25T03:32:13;98601.63;;;11.23;59.97
21944;BME280;11136;48.778;9.126;2024-01-25T03:34:39;98519.94;;;10.61;59.89
21944;BME280;11136;48.778;9.126;2024-01-25T03:37:04;98621.41;;;11.21;60.21
21944;BME280;11136;48.778;9.126;2024-01-25T03:39:30;98592.91;;;11.09;60.17
21944;BME280;11136;48.778;9.126;2024-01-25T03:41:55;98650.13;;;11.47;60.00
21944;BME280;11136;48.778;9.126;2024-01-25T03:44:21;98637.81;;;11.36;60.32
21944;BME280;11136;48.778;9.126;2024-01-25T03:46:46;98516.81;;;10.37;60.27
21944;BME280;11136;48.778;9.126;2024-01-25T03:49:11;98405.69;;;9.64;60.25
21944;BME280;11136;48.778;9.126;2024-01-25T03:51:36;98636.81;;;11.21;60.01
21944;BME280;11136;48.778;9.126;2024-01-25T03:54:02;98402.91;;;9.69;60.19
21944;BME280;11136;48.778;9.126;2024-01-25T03:56:27;98620.56;;;10.85;60.13
21944;BME280;11136;48.778;9.126;2024-01-25T03:58:53;98685.16;;;11.48;59.78
21944;BME280;11136;48.778;9.126;2024-01-25T04:01:18;98679.44;;;11.43;60.44
21944;BME280;11136;48.778;9.126;2024-01-25T04:03:43;98687.88;;;11.45;60.35
21944;BME280;11136;48.778;9.126;2024-01-25T04:06:08;98692.41;;;11.40;60.36
21944;BME280;11136;48.778;9.126;2024-01-25T04:08:37;98574.03;;;10.37;60.44
21944;BME280;11136;48.778;9.126;2024-01-25T04:11:02;98607.63;;;10.88;60.42
21944;BME280;11136;48.778;9.126;2024-01-25T04:13:28;98663.38;;;11.20;60.09
21944;BME280;11136;48.778;9.126;2024-01-25T04:15:53;98421.97;;;9.63;60.65
21944;BME280;11136;48.778;9.126;2024-01-25T04:18:18;98700.13;;;11.40;60.56
21944;BME280;11136;48.778;9.126;2024-01-25T04:20:44;98706.03;;;11.42;60.37
21944;BME280;11136;48.778;9.126;2024-01-25T04:23:09;98707.06;;;11.38;60.59
21944;BME280;11136;48.778;9.126;2024-01-25T04:25:35;98580.97;;;10.54;60.65
21944;BME280;11136;48.778;9.126;2024-01-25T04:28:00;98693.63;;;11.32;61.02
21944;BME280;11136;48.778;9.126;2024-01-25T04:30:26;98700.69;;;11.27;61.05
21944;BME280;11136;48.778;9.126;2024-01-25T04:32:51;98720.41;;;11.27;60.97
21944;BME280;11136;48.778;9.126;2024-01-25T04:35:16;98653.53;;;10.94;61.18
21944;BME280;11136;48.778;9.126;2024-01-25T04:37:42;98580.50;;;10.46;60.69
21944;BME280;11136;48.778;9.126;2024-01-25T04:40:07;98704.63;;;11.17;61.08
21944;BME280;11136;48.778;9.126;2024-01-25T04:42:33;98458.16;;;9.56;60.84
21944;BME280;11136;48.778;9.126;2024-01-25T04:44:58;98710.72;;;11.15;60.61
21944;BME280;11136;48.778;9.126;2024-01-25T04:47:23;98710.03;;;11.11;60.98
21944;BME280;11136;48.778;9.126;2024-01-25T04:49:49;98708.38;;;11.10;60.91
21944;BME280;11136;48.778;9.126;2024-01-25T04:52:14;98572.34;;;10.18;60.85
21944;BME280;11136;48.778;9.126;2024-01-25T04:54:39;98577.41;;;10.21;60.94
21944;BME280;11136;48.778;9.126;2024-01-25T04:57:05;98571.78;;;9.92;60.80
21944;BME280;11136;48.778;9.126;2024-01-25T04:59:32;98711.78;;;10.92;60.62
21944;BME280;11136;48.778;9.126;2024-01-25T05:01:58;98727.25;;;10.90;60.73
21944;BME280;11136;48.778;9.126;2024-01-25T05:04:24;98614.78;;;10.25;60.88
21944;BME280;11136;48.778;9.126;2024-01-25T05:06:49;98717.38;;;10.81;60.67
21944;BME280;11136;48.778;9.126;2024-01-25T05:09:14;98608.91;;;10.02;60.27
21944;BME280;11136;48.778;9.126;2024-01-25T05:11:40;98683.97;;;10.45;60.25
21944;BME280;11136;48.778;9.126;2024-01-25T05:14:06;98715.31;;;10.70;60.47
21944;BME280;11136;48.778;9.126;2024-01-25T05:16:31;98691.38;;;10.51;60.00
21944;BME280;11136;48.778;9.126;2024-01-25T05:18:57;98713.03;;;10.64;60.52
21944;BME280;11136;48.778;9.126;2024-01-25T05:21:22;98717.38;;;10.62;60.05
21944;BME280;11136;48.778;9.126;2024-01-25T05:23:47;98712.66;;;10.53;59.89
21944;BME280;11136;48.778;9.126;2024-01-25T05:26:13;98703.81;;;10.40;60.58
21944;BME280;11136;48.778;9.126;2024-01-25T05:28:38;98727.56;;;10.45;60.63
21944;BME280;11136;48.778;9.126;2024-01-25T05:31:03;98669.75;;;10.18;60.15
21944;BME280;11136;48.778;9.126;2024-01-25T05:33:29;98700.91;;;10.08;60.19
21944;BME280;11136;48.778;9.126;2024-01-25T05:35:54;98730.38;;;10.39;60.13
21944;BME280;11136;48.778;9.126;2024-01-25T05:38:19;98556.50;;;9.31;59.91
21944;BME280;11136;48.778;9.126;2024-01-25T05:40:44;98494.66;;;8.79;60.50
21944;BME280;11136;48.778;9.126;2024-01-25T05:43:10;98580.66;;;9.24;60.43
21944;BME280;11136;48.778;9.126;2024-01-25T05:45:35;98506.31;;;8.86;60.14
21944;BME280;11136;48.778;9.126;2024-01-25T05:48:00;98716.06;;;10.13;60.30
21944;BME280;11136;48.778;9.126;2024-01-25T05:50:26;98574.13;;;9.17;60.58
21944;BME280;11136;48.778;9.126;2024-01-25T05:52:51;98546.47;;;9.05;60.50
21944;BME280;11136;48.778;9.126;2024-01-25T05:55:16;98747.47;;;10.18;60.64
21944;BME280;11136;48.778;9.126;2024-01-25T05:57:42;98648.00;;;9.46;61.45
21944;BME280;11136;48.778;9.126;2024-01-25T06:00:08;98653.38;;;9.61;61.11
21944;BME280;11136;48.778;9.126;2024-01-25T06:02:36;98398.09;;;8.02;60.91
21944;BME280;11136;48.778;9.126;2024-01-25T06:05:01;98326.97;;;7.49;61.07
21944;BME280;11136;48.778;9.126;2024-01-25T06:07:27;98738.72;;;10.03;61.84
21944;BME280;11136;48.778;9.126;2024-01-25T06:09:53;98465.81;;;8.34;61.70
21944;BME280;11136;48.778;9.126;2024-01-25T06:12:18;98742.44;;;9.96;62.64
21944;BME280;11136;48.778;9.126;2024-01-25T06:14:44;98614.31;;;9.15;62.18
21944;BME280;11136;48.778;9.126;2024-01-25T06:17:09;98654.50;;;9.33;62.16
21944;BME280;11136;48.778;9.126;2024-01-25T06:19:34;98568.28;;;8.71;62.26
21944;BME280;11136;48.778;9.126;2024-01-25T06:22:00;98551.53;;;8.64;62.40
21944;BME280;11136;48.778;9.126;2024-01-25T06:24:25;98652.09;;;9.30;63.11
21944;BME280;11136;48.778;9.126;2024-01-25T06:26:52;98753.03;;;9.87;62.36
21944;BME280;11136;48.778;9.126;2024-01-25T06:29:17;98646.41;;;9.22;62.69
21944;BME280;11136;48.778;9.126;2024-01-25T06:31:43;98765.91;;;9.86;63.20
21944;BME280;11136;48.778;9.126;2024-01-25T06:34:09;98749.06;;;9.80;63.09
21944;BME280;11136;48.778;9.126;2024-01-25T06:36:35;98755.09;;;9.79;63.23
21944;BME280;11136;48.778;9.126;2024-01-25T06:39:00;98663.69;;;8.95;62.93
21944;BME280;11136;48.778;9.126;2024-01-25T06:41:25;98640.84;;;8.90;63.33
21944;BME280;11136;48.778;9.126;2024-01-25T06:43:50;98779.69;;;9.39;63.46
21944;BME280;11136;48.778;9.126;2024-01-25T06:46:16;98564.91;;;8.49;63.07
21944;BME280;11136;48.778;9.126;2024-01-25T06:48:41;98733.16;;;9.51;64.08
21944;BME280;11136;48.778;9.126;2024-01-25T06:51:06;98653.34;;;8.98;63.90
21944;BME280;11136;48.778;9.126;2024-01-25T06:53:31;98636.31;;;8.75;64.06
21944;BME280;11136;48.778;9.126;2024-01-25T06:55:57;98758.63;;;9.55;63.91
21944;BME280;11136;48.778;9.126;2024-01-25T06:58:22;98646.66;;;8.72;64.00
21944;BME280;11136;48.778;9.126;2024-01-25T07:00:48;98591.78;;;8.36;64.11
21944;BME280;11136;48.778;9.126;2024-01-25T07:03:13;98514.03;;;7.74;63.35
21944;BME280;11136;48.778;9.126;2024-01-25T07:05:40;98631.41;;;8.47;63.81
21944;BME280;11136;48.778;9.126;2024-01-25T07:08:06;98656.88;;;8.72;64.03
21944;BME280;11136;48.778;9.126;2024-01-25T07:10:34;98662.13;;;8.69;63.90
21944;BME280;11136;48.778;9.126;2024-01-25T07:12:59;98680.22;;;8.86;64.00
21944;BME280;11136;48.778;9.126;2024-01-25T07:15:24;98618.63;;;8.47;64.15
21944;BME280;11136;48.778;9.126;2024-01-25T07:17:50;98491.69;;;7.32;63.60
21944;BME280;11136;48.778;9.126;2024-01-25T07:20:15;98788.16;;;9.41;64.27
21944;BME280;11136;48.778;9.126;2024-01-25T07:22:40;98570.56;;;8.10;63.98
21944;BME280;11136;48.778;9.126;2024-01-25T07:25:06;98637.78;;;8.36;63.62
21944;BME280;11136;48.778;9.126;2024-01-25T07:27:31;98821.53;;;9.38;64.03
21944;BME280;11136;48.778;9.126;2024-01-25T07:29:57;98678.25;;;8.48;64.12
21944;BME280;11136;48.778;9.126;2024-01-25T07:32:22;98707.69;;;8.81;63.60
21944;BME280;11136;48.778;9.126;2024-01-25T07:34:49;98784.50;;;9.25;64.44
21944;BME280;11136;48.778;9.126;2024-01-25T07:37:14;98525.22;;;7.45;63.84
21944;BME280;11136;48.778;9.126;2024-01-25T07:39:41;98698.09;;;8.41;64.12
21944;BME280;11136;48.778;9.126;2024-01-25T07:42:06;98669.53;;;8.28;63.93
21944;BME280;11136;48.778;9.126;2024-01-25T07:44:31;98701.69;;;8.59;64.19
21944;BME280;11136;48.778;9.126;2024-01-25T07:46:56;98714.94;;;8.70;63.68
21944;BME280;11136;48.778;9.126;2024-01-25T07:49:22;98782.72;;;9.04;64.18
21944;BME280;11136;48.778;9.126;2024-01-25T07:51:47;98678.78;;;8.56;63.92
21944;BME280;11136;48.778;9.126;2024-01-25T07:54:13;98779.41;;;8.78;63.70
21944;BME280;11136;48.778;9.126;2024-01-25T07:56:39;98670.69;;;8.45;63.85
21944;BME280;11136;48.778;9.126;2024-01-25T07:59:04;98500.31;;;7.53;64.06
21944;BME280;11136;48.778;9.126;2024-01-25T08:01:30;98627.66;;;8.33;63.75
21944;BME280;11136;48.778;9.126;2024-01-25T08:03:55;98715.16;;;8.64;63.58
21944;BME280;11136;48.778;9.126;2024-01-25T08:06:21;98619.38;;;8.26;63.60
21944;BME280;11136;48.778;9.126;2024-01-25T08:08:46;98709.66;;;8.97;63.93
21944;BME280;11136;48.778;9.126;2024-01-25T08:11:11;98593.44;;;8.38;63.20
21944;BME280;11136;48.778;9.126;2024-01-25T08:13:36;98491.88;;;7.75;62.98
21944;BME280;11136;48.778;9.126;2024-01-25T08:16:02;98665.09;;;8.80;62.72
21944;BME280;11136;48.778;9.126;2024-01-25T08:18:27;98743.66;;;9.44;62.83
21944;BME280;11136;48.778;9.126;2024-01-25T08:20:54;98775.44;;;9.82;62.39
21944;BME280;11136;48.778;9.126;2024-01-25T08:23:21;98552.69;;;8.34;62.21
21944;BME280;11136;48.778;9.126;2024-01-25T08:25:46;98715.22;;;9.51;61.50
21944;BME280;11136;48.778;9.126;2024-01-25T08:28:11;98718.69;;;9.50;61.77
21944;BME280;11136;48.778;9.126;2024-01-25T08:30:36;98647.25;;;9.01;61.27
21944;BME280;11136;48.778;9.126;2024-01-25T08:33:02;98571.25;;;8.39;61.12
21944;BME280;11136;48.778;9.126;2024-01-25T08:35:28;98806.84;;;9.87;60.98
21944;BME280;11136;48.778;9.126;2024-01-25T08:37:53;98775.31;;;9.85;61.60
21944;BME280;11136;48.778;9.126;2024-01-25T08:40:18;98647.19;;;9.02;60.92
21944;BME280;11136;48.778;9.126;2024-01-25T08:42:44;98794.53;;;9.95;61.04
21944;BME280;11136;48.778;9.126;2024-01-25T08:45:10;98584.88;;;8.61;60.44
21944;BME280;11136;48.778;9.126;2024-01-25T08:47:36;98811.72;;;10.13;60.61
21944;BME280;11136;48.778;9.126;2024-01-25T08:50:01;98729.47;;;9.79;59.99
21944;BME280;11136;48.778;9.126;2024-01-25T08:52:26;98823.56;;;10.38;59.41
21944;BME280;11136;48.778;9.126;2024-01-25T08:54:52;98817.59;;;10.58;59.49
21944;BME280;11136;48.778;9.126;2024-01-25T08:57:17;98827.78;;;10.80;59.24
21944;BME280;11136;48.778;9.126;2024-01-25T08:59:43;98567.50;;;9.33;58.38
21944;BME280;11136;48.778;9.126;2024-01-25T09:02:08;98739.56;;;10.24;57.43
21944;BME280;11136;48.778;9.126;2024-01-25T09:04:33;98839.34;;;11.27;57.87
21944;BME280;11136;48.778;9.126;2024-01-25T09:06:59;98544.44;;;9.54;57.46
21944;BME280;11136;48.778;9.126;2024-01-25T09:09:25;98825.28;;;11.55;57.45
21944;BME280;11136;48.778;9.126;2024-01-25T09:11:50;98635.50;;;10.39;56.56
21944;BME280;11136;48.778;9.126;2024-01-25T09:14:15;98467.06;;;9.28;55.78
21944;BME280;11136;48.778;9.126;2024-01-25T09:16:41;98535.34;;;9.86;55.65
21944;BME280;11136;48.778;9.126;2024-01-25T09:19:06;98584.59;;;10.31;55.55
21944;BME280;11136;48.778;9.126;2024-01-25T09:21:31;98881.28;;;12.03;55.56
21944;BME280;11136;48.778;9.126;2024-01-25T09:23:57;98748.31;;;11.52;54.86
21944;BME280;11136;48.778;9.126;2024-01-25T09:26:22;98753.81;;;11.63;54.95
21944;BME280;11136;48.778;9.126;2024-01-25T09:28:48;98742.25;;;11.72;54.75
21944;BME280;11136;48.778;9.126;2024-01-25T09:31:13;98856.41;;;12.55;54.30
21944;BME280;11136;48.778;9.126;2024-01-25T09:33:38;98857.16;;;12.40;54.14
21944;BME280;11136;48.778;9.126;2024-01-25T09:36:04;98735.81;;;11.63;54.67
21944;BME280;11136;48.778;9.126;2024-01-25T09:38:29;98803.00;;;12.26;54.34
21944;BME280;11136;48.778;9.126;2024-01-25T09:40:56;98747.03;;;11.96;53.67
21944;BME280;11136;48.778;9.126;2024-01-25T09:43:21;98600.56;;;11.10;53.27
21944;BME280;11136;48.778;9.126;2024-01-25T09:45:48;98862.69;;;13.17;53.14
21944;BME280;11136;48.778;9.126;2024-01-25T09:48:17;98817.91;;;12.87;52.68
21944;BME280;11136;48.778;9.126;2024-01-25T09:50:45;98880.44;;;13.55;52.46
21944;BME280;11136;48.778;9.126;2024-01-25T09:53:17;98707.94;;;12.57;52.28
21944;BME280;11136;48.778;9.126;2024-01-25T09:55:42;98869.38;;;13.85;51.93
21944;BME280;11136;48.778;9.126;2024-01-25T09:58:09;98811.19;;;13.17;51.67
21944;BME280;11136;48.778;9.126;2024-01-25T10:00:36;98536.44;;;11.43;52.20
21944;BME280;11136;48.778;9.126;2024-01-25T10:03:02;98796.47;;;12.86;52.21
21944;BME280;11136;48.778;9.126;2024-01-25T10:05:27;98776.72;;;12.54;51.96
21944;BME280;11136;48.778;9.126;2024-01-25T10:07:53;98876.09;;;13.24;52.58
21944;BME280;11136;48.778;9.126;2024-01-25T10:10:18;98833.97;;;12.92;52.52
21944;BME280;11136;48.778;9.126;2024-01-25T10:12:43;98773.03;;;12.42;52.49
21944;BME280;11136;48.778;9.126;2024-01-25T10:15:09;98875.41;;;13.21;52.54
21944;BME280;11136;48.778;9.126;2024-01-25T10:17:35;98797.97;;;12.75;52.34
21944;BME280;11136;48.778;9.126;2024-01-25T10:20:00;98708.78;;;12.08;52.28
21944;BME280;11136;48.778;9.126;2024-01-25T10:22:26;98861.91;;;13.15;52.04
21944;BME280;11136;48.778;9.126;2024-01-25T10:24:52;98890.78;;;13.05;51.85
21944;BME280;11136;48.778;9.126;2024-01-25T10:27:19;98660.59;;;11.78;52.55
21944;BME280;11136;48.778;9.126;2024-01-25T10:29:45;98694.88;;;11.77;52.23
21944;BME280;11136;48.778;9.126;2024-01-25T10:32:10;98850.44;;;12.88;52.35
21944;BME280;11136;48.778;9.126;2024-01-25T10:34:36;98853.94;;;12.87;52.56
21944;BME280;11136;48.778;9.126;2024-01-25T10:37:06;98659.81;;;11.59;52.83
21944;BME280;11136;48.778;9.126;2024-01-25T10:39:32;98850.31;;;12.91;52.29
21944;BME280;11136;48.778;9.126;2024-01-25T10:41:59;98851.34;;;13.04;52.17
21944;BME280;11136;48.778;9.126;2024-01-25T10:44:24;98761.38;;;12.35;52.16
21944;BME280;11136;48.778;9.126;2024-01-25T10:46:50;98873.03;;;13.49;52.47
21944;BME280;11136;48.778;9.126;2024-01-25T10:49:16;98858.91;;;13.88;51.63
21944;BME280;11136;48.778;9.126;2024-01-25T10:51:43;98700.31;;;13.35;51.01
21944;BME280;11136;48.778;9.126;2024-01-25T10:54:09;98665.38;;;13.61;50.68
21944;BME280;11136;48.778;9.126;2024-01-25T10:56:35;98700.97;;;13.98;49.76
21944;BME280;11136;48.778;9.126;2024-01-25T10:59:00;98821.19;;;14.89;49.22
21944;BME280;11136;48.778;9.126;2024-01-25T11:01:27;98702.06;;;14.53;49.04
21944;BME280;11136;48.778;9.126;2024-01-25T11:03:52;98819.47;;;15.59;48.10
21944;BME280;11136;48.778;9.126;2024-01-25T11:06:20;98764.13;;;15.35;47.26
21944;BME280;11136;48.778;9.126;2024-01-25T11:08:46;98551.78;;;13.92;47.34
21944;BME280;11136;48.778;9.126;2024-01-25T11:11:13;98641.66;;;14.69;46.62
21944;BME280;11136;48.778;9.126;2024-01-25T11:13:40;98649.59;;;15.08;46.60
21944;BME280;11136;48.778;9.126;2024-01-25T11:16:18;98805.59;;;16.14;45.28
21944;BME280;11136;48.778;9.126;2024-01-25T11:18:51;98574.00;;;14.64;44.77
21944;BME280;11136;48.778;9.126;2024-01-25T11:21:28;98793.06;;;15.69;43.86
21944;BME280;11136;48.778;9.126;2024-01-25T11:24:01;98750.09;;;14.98;44.58
21944;BME280;11136;48.778;9.126;2024-01-25T11:26:27;98820.47;;;14.87;45.73
21944;BME280;11136;48.778;9.126;2024-01-25T11:28:52;98734.63;;;14.25;45.85
21944;BME280;11136;48.778;9.126;2024-01-25T11:31:18;98678.66;;;13.53;45.95
21944;BME280;11136;48.778;9.126;2024-01-25T11:33:44;98561.47;;;13.00;46.27
21944;BME280;11136;48.778;9.126;2024-01-25T11:36:09;98792.16;;;14.27;46.50
21944;BME280;11136;48.778;9.126;2024-01-25T11:38:36;98682.72;;;13.57;46.68
21944;BME280;11136;48.778;9.126;2024-01-25T11:41:01;98721.25;;;13.60;46.43
21944;BME280;11136;48.778;9.126;2024-01-25T11:43:27;98662.78;;;12.99;46.79
21944;BME280;11136;48.778;9.126;2024-01-25T11:45:52;98751.81;;;13.66;47.09
21944;BME280;11136;48.778;9.126;2024-01-25T11:48:18;98760.56;;;13.94;46.94
21944;BME280;11136;48.778;9.126;2024-01-25T11:50:43;98713.06;;;14.12;46.59
21944;BME280;11136;48.778;9.126;2024-01-25T11:53:09;98753.25;;;14.75;46.24
21944;BME280;11136;48.778;9.126;2024-01-25T11:55:37;98705.56;;;14.80;45.23
21944;BME280;11136;48.778;9.126;2024-01-25T11:58:03;98547.47;;;13.93;44.63
21944;BME280;11136;48.778;9.126;2024-01-25T12:00:28;98648.41;;;14.58;44.10
21944;BME280;11136;48.778;9.126;2024-01-25T12:02:54;98549.03;;;13.81;44.08
21944;BME280;11136;48.778;9.126;2024-01-25T12:05:19;98628.66;;;14.43;44.32
21944;BME280;11136;48.778;9.126;2024-01-25T12:07:45;98653.78;;;14.55;44.65
21944;BME280;11136;48.778;9.126;2024-01-25T12:10:15;98650.41;;;14.81;44.57
21944;BME280;11136;48.778;9.126;2024-01-25T12:12:41;98749.94;;;15.55;44.87
21944;BME280;11136;48.778;9.126;2024-01-25T12:15:07;98627.69;;;14.86;44.99
21944;BME280;11136;48.778;9.126;2024-01-25T12:17:34;98741.38;;;15.94;45.11
21944;BME280;11136;48.778;9.126;2024-01-25T12:20:02;98740.38;;;16.22;44.88
21944;BME280;11136;48.778;9.126;2024-01-25T12:22:28;98538.84;;;15.28;44.83
21944;BME280;11136;48.778;9.126;2024-01-25T12:24:55;98742.69;;;16.77;44.52
21944;BME280;11136;48.778;9.126;2024-01-25T12:27:21;98755.38;;;16.93;43.65
21944;BME280;11136;48.778;9.126;2024-01-25T12:29:50;98546.53;;;15.81;43.80
21944;BME280;11136;48.778;9.126;2024-01-25T12:32:16;98619.44;;;16.37;43.46
21944;BME280;11136;48.778;9.126;2024-01-25T12:34:42;98489.34;;;15.73;43.45
21944;BME280;11136;48.778;9.126;2024-01-25T12:37:09;98712.06;;;17.19;43.05
21944;BME280;11136;48.778;9.126;2024-01-25T12:39:34;98719.59;;;17.59;43.01
21944;BME280;11136;48.778;9.126;2024-01-25T12:41:59;98654.63;;;17.25;42.62
21944;BME280;11136;48.778;9.126;2024-01-25T12:44:25;98712.84;;;17.80;42.30
21944;BME280;11136;48.778;9.126;2024-01-25T12:46:50;98545.59;;;16.80;41.52
21944;BME280;11136;48.778;9.126;2024-01-25T12:49:17;98732.50;;;17.95;41.69
21944;BME280;11136;48.778;9.126;2024-01-25T12:51:42;98500.22;;;16.75;41.84
21944;BME280;11136;48.778;9.126;2024-01-25T12:54:07;98525.75;;;17.03;41.46